Time;durP1;ratioP1;P1;durP2;ratioP2;P2;SDS_P1;SDS_P2;PMS_P1;PMS_P2;Temp;Humidity;BMP_temperature;BMP_pressure;BME280_temperature;BME280_humidity;BME280_pressure;Samples;Min_cycle;Max_cycle;Signal;HPM_P1;HPM_P2
2022/08/29 00:02:24;;;;;;;25.73;14.82;;;15.10;99.90;;;;;;5042057;28;20037;-79
2022/08/29 00:04:50;;;;;;;19.25;14.43;;;15.10;99.90;;;;;;5039425;28;20071;-79
2022/08/29 00:07:16;;;;;;;18.17;13.77;;;15.10;99.90;;;;;;5031979;28;20033;-79
2022/08/29 00:09:42;;;;;;;19.38;13.98;;;15.10;99.90;;;;;;5046534;28;20037;-79
2022/08/29 00:12:08;;;;;;;16.63;14.15;;;15.00;99.90;;;;;;5039516;28;20497;-79
2022/08/29 00:14:35;;;;;;;17.17;13.50;;;15.00;99.90;;;;;;5045896;28;20075;-79
2022/08/29 00:17:01;;;;;;;15.35;13.77;;;15.00;99.90;;;;;;5046059;28;20037;-79
2022/08/29 00:19:27;;;;;;;19.25;13.10;;;15.00;99.90;;;;;;5038232;28;20509;-79
2022/08/29 00:21:52;;;;;;;17.52;13.52;;;14.90;99.90;;;;;;5045739;28;20032;-79
2022/08/29 00:24:18;;;;;;;16.92;13.60;;;14.90;99.90;;;;;;5038270;28;20032;-80
2022/08/29 00:26:43;;;;;;;17.10;13.75;;;14.90;99.90;;;;;;5037432;28;20048;-79
2022/08/29 00:29:09;;;;;;;16.50;12.73;;;14.90;99.90;;;;;;5047552;28;20025;-79
2022/08/29 00:31:34;;;;;;;18.60;12.93;;;14.90;99.90;;;;;;5050138;28;20029;-79
2022/08/29 00:34:00;;;;;;;17.17;13.43;;;14.90;99.90;;;;;;5035832;28;20061;-79
2022/08/29 00:36:26;;;;;;;14.10;12.60;;;14.90;99.90;;;;;;5049685;28;20054;-79
2022/08/29 00:38:52;;;;;;;17.98;12.68;;;14.80;99.90;;;;;;5049419;28;20705;-79
2022/08/29 00:41:18;;;;;;;14.48;12.32;;;14.80;99.90;;;;;;5044320;28;20409;-79
2022/08/29 00:43:44;;;;;;;18.70;13.43;;;14.80;99.90;;;;;;5035915;28;20121;-85
2022/08/29 00:46:47;;;;;;;16.70;13.00;;;14.80;99.90;;;;;;5029196;28;20429;-85
2022/08/29 00:49:27;;;;;;;15.70;12.55;;;14.80;99.90;;;;;;5032881;28;20060;-84
2022/08/29 00:51:55;;;;;;;15.35;12.77;;;14.80;99.90;;;;;;5023145;28;20116;-85
2022/08/29 00:54:22;;;;;;;18.50;13.60;;;14.80;99.90;;;;;;5033661;28;20089;-84
2022/08/29 00:56:49;;;;;;;17.90;13.82;;;14.80;99.90;;;;;;5046891;28;20068;-84
2022/08/29 00:59:23;;;;;;;15.98;12.93;;;14.80;99.90;;;;;;5049107;28;20032;-84
2022/08/29 01:01:48;;;;;;;15.07;12.60;;;14.80;99.90;;;;;;5038569;28;20120;-85
2022/08/29 01:04:14;;;;;;;14.25;11.73;;;14.80;99.90;;;;;;5040725;28;20116;-84
2022/08/29 01:06:41;;;;;;;13.63;12.00;;;14.80;99.90;;;;;;5039956;28;20037;-84
2022/08/29 01:09:07;;;;;;;17.60;12.98;;;14.70;99.90;;;;;;5049434;28;20032;-84
2022/08/29 01:14:20;;;;;;;16.08;13.10;;;14.70;99.90;;;;;;5044616;28;20036;-84
2022/08/29 01:16:47;;;;;;;14.27;12.77;;;14.70;99.90;;;;;;5044722;28;20037;-84
2022/08/29 01:19:40;;;;;;;15.88;12.57;;;14.70;99.90;;;;;;5035720;28;20021;-84
2022/08/29 01:22:21;;;;;;;15.57;12.95;;;14.70;99.90;;;;;;5027153;28;20124;-84
2022/08/29 01:24:50;;;;;;;14.90;12.60;;;14.70;99.90;;;;;;5047265;28;20072;-84
2022/08/29 01:27:22;;;;;;;15.35;12.43;;;14.70;99.90;;;;;;5049039;28;20457;-84
2022/08/29 01:29:48;;;;;;;18.27;12.32;;;14.70;99.90;;;;;;5040240;28;20478;-84
2022/08/29 01:32:14;;;;;;;15.63;12.43;;;14.70;99.90;;;;;;5041347;28;20037;-84
2022/08/29 01:34:41;;;;;;;15.00;12.20;;;14.70;99.90;;;;;;5042864;28;20284;-84
2022/08/29 01:37:10;;;;;;;14.40;12.32;;;14.70;99.90;;;;;;5037847;28;20035;-84
2022/08/29 01:39:40;;;;;;;17.52;12.18;;;14.70;99.90;;;;;;5048900;28;20024;-84
2022/08/29 01:42:10;;;;;;;13.68;12.07;;;14.70;99.90;;;;;;5037382;28;20032;-84
2022/08/29 01:44:37;;;;;;;16.38;12.40;;;14.60;99.90;;;;;;5048172;28;20029;-84
2022/08/29 01:47:04;;;;;;;15.80;12.82;;;14.60;99.90;;;;;;5034328;28;20028;-84
2022/08/29 01:49:33;;;;;;;15.25;12.00;;;14.60;99.90;;;;;;5048598;28;20029;-84
2022/08/29 01:52:00;;;;;;;14.18;12.13;;;14.60;99.90;;;;;;5036831;28;20052;-84
2022/08/29 01:54:26;;;;;;;19.52;12.93;;;14.60;99.90;;;;;;5036056;28;20056;-84
2022/08/29 01:56:53;;;;;;;14.50;12.32;;;14.60;99.90;;;;;;5046092;28;20509;-84
2022/08/29 01:59:22;;;;;;;14.70;12.40;;;14.50;99.90;;;;;;5033653;28;20547;-84
2022/08/29 02:02:11;;;;;;;13.65;11.52;;;14.50;99.90;;;;;;5038178;28;20033;-84
2022/08/29 02:04:39;;;;;;;15.07;12.18;;;14.50;99.90;;;;;;5037161;28;20037;-83
2022/08/29 02:07:05;;;;;;;12.32;11.00;;;14.50;99.90;;;;;;5047415;28;20033;-84
2022/08/29 02:09:31;;;;;;;13.52;12.07;;;14.50;99.90;;;;;;5048366;28;20531;-84
2022/08/29 02:11:58;;;;;;;13.05;11.75;;;14.50;99.90;;;;;;5046331;28;20470;-84
2022/08/29 02:14:25;;;;;;;12.88;11.57;;;14.50;99.90;;;;;;5047060;28;20025;-84
2022/08/29 02:16:50;;;;;;;13.95;11.93;;;14.50;99.90;;;;;;5042461;28;20029;-84
2022/08/29 02:19:17;;;;;;;11.80;10.52;;;14.50;99.90;;;;;;5044088;28;20071;-83
2022/08/29 02:21:43;;;;;;;15.15;12.40;;;14.40;99.90;;;;;;5044395;28;20024;-83
2022/08/29 02:24:09;;;;;;;12.48;10.50;;;14.40;99.90;;;;;;5046453;28;20021;-84
2022/08/29 02:26:34;;;;;;;13.15;11.88;;;14.40;99.90;;;;;;5047473;28;20470;-84
2022/08/29 02:29:00;;;;;;;12.35;11.10;;;14.40;99.90;;;;;;5047648;28;20037;-84
2022/08/29 02:31:26;;;;;;;14.38;11.45;;;14.30;99.90;;;;;;5039905;28;20414;-84
2022/08/29 02:33:53;;;;;;;15.40;12.23;;;14.30;99.90;;;;;;5047191;28;20033;-84
2022/08/29 02:36:19;;;;;;;14.63;12.07;;;14.30;99.90;;;;;;5047362;28;20029;-84
2022/08/29 02:38:44;;;;;;;12.65;11.23;;;14.30;99.90;;;;;;5041631;28;20021;-83
2022/08/29 02:41:11;;;;;;;11.93;10.73;;;14.30;99.90;;;;;;5038843;28;20091;-84
2022/08/29 02:43:36;;;;;;;11.65;10.55;;;14.20;99.90;;;;;;5047048;28;20083;-84
2022/08/29 02:46:03;;;;;;;11.10;10.00;;;14.20;99.90;;;;;;5047597;28;20043;-84
2022/08/29 02:48:29;;;;;;;11.27;10.18;;;14.20;99.90;;;;;;5045642;28;20029;-84
2022/08/29 02:50:57;;;;;;;10.85;9.55;;;14.20;99.90;;;;;;5036672;28;20060;-84
2022/08/29 02:53:29;;;;;;;13.70;10.32;;;14.10;99.90;;;;;;5030929;28;20041;-83
2022/08/29 02:55:55;;;;;;;12.27;10.98;;;14.20;99.90;;;;;;5020227;28;20487;-83
2022/08/29 02:58:22;;;;;;;10.63;9.52;;;14.10;99.90;;;;;;5035902;28;20107;-83
2022/08/29 03:00:48;;;;;;;12.18;10.25;;;14.10;99.90;;;;;;5045145;28;20051;-84
2022/08/29 03:03:13;;;;;;;11.65;10.30;;;14.10;99.90;;;;;;5047394;28;20025;-83
2022/08/29 03:05:41;;;;;;;13.45;10.95;;;14.10;99.90;;;;;;5047085;28;20025;-84
2022/08/29 03:08:09;;;;;;;12.88;10.82;;;14.10;99.90;;;;;;5038854;28;20072;-84
2022/08/29 03:10:35;;;;;;;11.65;10.45;;;14.10;99.90;;;;;;5042416;28;20486;-84
2022/08/29 03:13:01;;;;;;;11.75;9.63;;;14.10;99.90;;;;;;5040654;28;20048;-84
2022/08/29 03:15:27;;;;;;;11.95;10.43;;;14.10;99.90;;;;;;5040461;28;20096;-84
2022/08/29 03:17:53;;;;;;;12.90;9.13;;;14.00;99.90;;;;;;5031706;28;20052;-84
2022/08/29 03:20:21;;;;;;;10.38;8.45;;;14.00;99.90;;;;;;5047089;28;20029;-83
2022/08/29 03:22:47;;;;;;;10.73;8.85;;;14.00;99.90;;;;;;5044540;28;20021;-83
2022/08/29 03:25:13;;;;;;;12.45;9.95;;;14.00;99.90;;;;;;5036433;28;20025;-83
2022/08/29 03:27:39;;;;;;;14.85;11.18;;;14.00;99.90;;;;;;5031362;28;20025;-83
2022/08/29 03:30:11;;;;;;;11.95;10.75;;;14.00;99.90;;;;;;5046830;28;20580;-83
2022/08/29 03:32:37;;;;;;;13.27;9.63;;;14.00;99.90;;;;;;5047015;28;20029;-83
2022/08/29 03:35:03;;;;;;;12.85;10.88;;;14.00;99.90;;;;;;5046505;28;20021;-83
2022/08/29 03:37:28;;;;;;;13.30;10.38;;;14.00;99.90;;;;;;5041372;28;20028;-83
2022/08/29 03:39:54;;;;;;;14.43;9.70;;;14.00;99.90;;;;;;5044937;28;20036;-83
2022/08/29 03:42:20;;;;;;;13.05;10.90;;;14.00;99.90;;;;;;5047201;28;20025;-84
2022/08/29 03:44:46;;;;;;;12.88;10.02;;;14.00;99.90;;;;;;5046476;28;20025;-84
2022/08/29 03:47:12;;;;;;;12.38;10.23;;;14.00;99.90;;;;;;5042270;28;20052;-83
2022/08/29 03:49:37;;;;;;;14.35;10.18;;;14.00;99.90;;;;;;5046336;28;20168;-83
2022/08/29 03:52:04;;;;;;;11.13;9.50;;;13.90;99.90;;;;;;5041851;28;20482;-83
2022/08/29 03:54:29;;;;;;;13.27;9.85;;;13.90;99.90;;;;;;5034927;28;20032;-84
2022/08/29 03:56:55;;;;;;;12.95;10.85;;;13.90;99.90;;;;;;5035758;28;20049;-83
2022/08/29 03:59:21;;;;;;;13.68;10.90;;;13.90;99.90;;;;;;5051097;28;20025;-84
2022/08/29 04:01:47;;;;;;;15.00;11.60;;;13.90;99.90;;;;;;5045774;28;20044;-83
2022/08/29 04:07:00;;;;;;;13.38;11.68;;;13.90;99.90;;;;;;5036134;28;20049;-83
2022/08/29 04:09:27;;;;;;;13.50;10.68;;;13.90;99.90;;;;;;5049589;28;20040;-83
2022/08/29 04:11:52;;;;;;;13.57;10.40;;;13.90;99.90;;;;;;5050355;28;20036;-84
2022/08/29 04:14:19;;;;;;;16.80;10.15;;;13.80;99.90;;;;;;5046336;28;20025;-83
2022/08/29 04:16:48;;;;;;;11.70;10.50;;;13.80;99.90;;;;;;5030791;28;20030;-83
2022/08/29 04:19:18;;;;;;;10.82;9.75;;;13.80;99.90;;;;;;5031858;28;20106;-83
2022/08/29 04:21:44;;;;;;;11.40;10.20;;;13.80;99.90;;;;;;5041118;28;20025;-83
2022/08/29 04:24:12;;;;;;;11.70;10.07;;;13.70;99.90;;;;;;5037312;28;20084;-83
2022/08/29 04:26:39;;;;;;;12.43;9.55;;;13.70;99.90;;;;;;5052277;28;20021;-84
2022/08/29 04:29:07;;;;;;;11.40;9.85;;;13.70;99.90;;;;;;5039963;28;20018;-84
2022/08/29 04:31:33;;;;;;;11.60;9.65;;;13.70;99.90;;;;;;5038840;28;20543;-83
2022/08/29 04:33:58;;;;;;;10.63;9.55;;;13.60;99.90;;;;;;5041006;28;20021;-83
2022/08/29 04:36:24;;;;;;;14.10;9.35;;;13.60;99.90;;;;;;5033459;28;20486;-83
2022/08/29 04:38:50;;;;;;;14.13;9.30;;;13.60;99.90;;;;;;5033004;28;20037;-83
2022/08/29 04:41:16;;;;;;;12.30;9.13;;;13.60;99.90;;;;;;5033933;28;20168;-83
2022/08/29 04:43:44;;;;;;;12.13;8.40;;;13.60;99.90;;;;;;5052475;28;20043;-83
2022/08/29 04:46:09;;;;;;;12.57;8.85;;;13.50;99.90;;;;;;5049686;28;21496;-83
2022/08/29 04:48:35;;;;;;;10.27;8.13;;;13.50;99.90;;;;;;5051672;28;20025;-83
2022/08/29 04:51:01;;;;;;;10.27;8.20;;;13.60;99.90;;;;;;5040654;28;20554;-83
2022/08/29 04:53:28;;;;;;;11.63;9.50;;;13.60;99.90;;;;;;5032105;28;20033;-83
2022/08/29 04:56:03;;;;;;;13.02;10.05;;;13.60;99.90;;;;;;5034546;28;20067;-83
2022/08/29 04:58:29;;;;;;;12.25;9.88;;;13.60;99.90;;;;;;5045324;28;20033;-83
2022/08/29 05:00:55;;;;;;;15.65;10.82;;;13.60;99.90;;;;;;5037775;28;20035;-83
2022/08/29 05:03:21;;;;;;;12.45;10.23;;;13.60;99.90;;;;;;5047152;28;20020;-83
2022/08/29 05:06:06;;;;;;;16.88;9.25;;;13.60;99.90;;;;;;5048111;28;20136;-83
2022/08/29 05:08:35;;;;;;;13.15;8.52;;;13.60;99.90;;;;;;5048589;28;20025;-83
2022/08/29 05:11:00;;;;;;;10.95;9.50;;;13.60;99.90;;;;;;5027566;28;20068;-83
2022/08/29 05:13:26;;;;;;;10.80;9.07;;;13.60;99.90;;;;;;5028459;28;20065;-83
2022/08/29 05:15:52;;;;;;;10.25;8.70;;;13.60;99.90;;;;;;5029487;28;20036;-83
2022/08/29 05:18:18;;;;;;;11.05;8.60;;;13.70;99.90;;;;;;5028836;28;20104;-83
2022/08/29 05:20:46;;;;;;;11.68;8.13;;;13.70;99.90;;;;;;5029060;28;20029;-83
2022/08/29 05:23:13;;;;;;;9.80;7.40;;;13.70;99.90;;;;;;5040942;28;20482;-83
2022/08/29 05:25:40;;;;;;;9.40;7.40;;;13.80;99.90;;;;;;5030005;28;20033;-83
2022/08/29 05:28:06;;;;;;;7.80;7.10;;;13.80;99.90;;;;;;5028923;28;20482;-83
2022/08/29 05:30:32;;;;;;;10.75;7.47;;;13.90;99.90;;;;;;5028086;28;20089;-83
2022/08/29 05:32:58;;;;;;;8.77;7.07;;;13.90;99.90;;;;;;5028984;28;20025;-83
2022/08/29 05:35:24;;;;;;;8.18;7.25;;;13.90;99.90;;;;;;5029230;28;20048;-83
2022/08/29 05:37:50;;;;;;;10.02;7.55;;;14.00;99.90;;;;;;5029097;28;20480;-83
2022/08/29 05:40:16;;;;;;;11.77;7.25;;;14.10;99.90;;;;;;5027542;28;20165;-83
2022/08/29 05:42:42;;;;;;;9.85;7.85;;;14.10;99.90;;;;;;5028345;28;20116;-82
2022/08/29 05:45:08;;;;;;;13.18;7.20;;;14.20;99.90;;;;;;5028221;28;20390;-83
2022/08/29 05:47:34;;;;;;;8.63;6.47;;;14.20;99.90;;;;;;5028573;28;20113;-83
2022/08/29 05:49:59;;;;;;;12.57;7.30;;;14.30;99.90;;;;;;5027725;28;20935;-83
2022/08/29 05:52:26;;;;;;;8.50;6.57;;;14.30;99.90;;;;;;5028101;28;20033;-83
2022/08/29 05:54:52;;;;;;;7.00;6.30;;;14.40;99.90;;;;;;5040365;28;20029;-83
2022/08/29 05:57:21;;;;;;;8.30;6.50;;;14.50;99.90;;;;;;5047909;28;20051;-83
2022/08/29 05:59:51;;;;;;;7.88;6.47;;;14.60;99.90;;;;;;5037747;28;20036;-83
2022/08/29 06:02:18;;;;;;;8.95;6.22;;;14.70;99.90;;;;;;5028471;28;20036;-83
2022/08/29 06:04:44;;;;;;;7.47;6.40;;;14.80;99.90;;;;;;5038556;28;20048;-83
2022/08/29 06:07:10;;;;;;;8.45;5.90;;;15.00;99.90;;;;;;5042976;28;20068;-83
2022/08/29 06:09:38;;;;;;;6.90;5.72;;;15.00;99.90;;;;;;5048037;28;20065;-83
2022/08/29 06:12:04;;;;;;;6.88;5.90;;;15.20;99.90;;;;;;5042118;28;20506;-83
2022/08/29 06:14:30;;;;;;;7.65;5.70;;;15.20;99.90;;;;;;5027361;28;20065;-83
2022/08/29 06:16:56;;;;;;;7.22;5.85;;;15.30;99.90;;;;;;5023192;28;20449;-83
2022/08/29 06:19:21;;;;;;;6.95;5.47;;;15.50;99.90;;;;;;5025628;28;20385;-83
2022/08/29 06:21:47;;;;;;;5.32;4.80;;;15.60;99.90;;;;;;5026814;28;20076;-83
2022/08/29 06:24:14;;;;;;;7.07;4.88;;;15.60;99.90;;;;;;5028500;28;20026;-79
2022/08/29 06:26:40;;;;;;;6.25;4.97;;;15.70;99.90;;;;;;5029090;28;20025;-79
2022/08/29 06:29:08;;;;;;;6.28;4.63;;;15.70;99.90;;;;;;5028567;28;20025;-79
2022/08/29 06:31:34;;;;;;;5.80;5.13;;;15.90;99.90;;;;;;5030433;28;20057;-78
2022/08/29 06:34:03;;;;;;;5.13;4.63;;;15.90;99.90;;;;;;5032825;28;20068;-79
2022/08/29 06:36:30;;;;;;;8.15;5.22;;;16.10;99.90;;;;;;5036871;28;20453;-76
2022/08/29 06:38:57;;;;;;;10.38;5.10;;;16.10;99.90;;;;;;5027087;28;20545;-84
2022/08/29 06:41:24;;;;;;;7.32;4.90;;;16.20;99.90;;;;;;5025190;28;20443;-84
2022/08/29 06:43:50;;;;;;;8.10;4.80;;;16.30;99.90;;;;;;5029024;28;20104;-84
2022/08/29 06:46:25;;;;;;;6.75;4.95;;;16.40;99.90;;;;;;5034053;28;20104;-84
2022/08/29 06:48:51;;;;;;;6.90;4.88;;;16.50;99.90;;;;;;5027055;28;20033;-84
2022/08/29 06:51:17;;;;;;;6.35;4.90;;;16.50;99.90;;;;;;5027273;28;20490;-84
2022/08/29 06:53:43;;;;;;;6.57;4.82;;;16.60;99.90;;;;;;5029228;28;20033;-84
2022/08/29 06:56:09;;;;;;;5.88;4.93;;;16.70;99.90;;;;;;5047097;28;20049;-84
2022/08/29 06:58:34;;;;;;;5.38;4.88;;;16.70;99.90;;;;;;5037602;28;20041;-85
2022/08/29 07:01:08;;;;;;;5.78;4.60;;;16.80;99.90;;;;;;5043921;28;20112;-84
2022/08/29 07:03:34;;;;;;;6.50;5.15;;;16.90;99.90;;;;;;5040460;28;20025;-85
2022/08/29 07:05:59;;;;;;;6.57;5.38;;;17.00;99.90;;;;;;5041109;28;20036;-85
2022/08/29 07:08:25;;;;;;;6.70;5.25;;;17.10;99.90;;;;;;5039212;28;20033;-85
2022/08/29 07:10:50;;;;;;;6.13;4.95;;;17.10;99.90;;;;;;5030079;28;20140;-85
2022/08/29 07:13:16;;;;;;;6.32;5.72;;;17.20;99.90;;;;;;5027003;28;20177;-85
2022/08/29 07:15:42;;;;;;;6.88;5.15;;;17.30;99.90;;;;;;5043018;28;20071;-79
2022/08/29 07:18:07;;;;;;;7.63;5.72;;;17.40;99.90;;;;;;5028689;28;20397;-79
2022/08/29 07:20:33;;;;;;;8.32;6.07;;;17.50;99.90;;;;;;5026779;28;20037;-79
2022/08/29 07:22:59;;;;;;;7.20;5.60;;;17.50;99.90;;;;;;5032792;28;20080;-79
2022/08/29 07:25:26;;;;;;;6.88;5.43;;;17.60;99.90;;;;;;5027350;28;20041;-79
2022/08/29 07:27:52;;;;;;;7.22;6.00;;;17.60;99.90;;;;;;5027564;28;20104;-79
2022/08/29 07:30:19;;;;;;;8.43;6.15;;;17.70;99.90;;;;;;5029667;28;20117;-79
2022/08/29 07:32:45;;;;;;;6.63;5.90;;;17.80;99.90;;;;;;5031109;28;20972;-85
2022/08/29 07:35:12;;;;;;;6.97;5.82;;;17.90;99.90;;;;;;5030168;28;20029;-84
2022/08/29 07:37:38;;;;;;;6.75;5.72;;;18.00;99.90;;;;;;5037520;28;20802;-85
2022/08/29 07:40:04;;;;;;;7.45;6.10;;;18.00;99.90;;;;;;5031370;28;20029;-83
2022/08/29 07:42:30;;;;;;;10.90;6.60;;;18.10;99.90;;;;;;5033619;28;20410;-84
2022/08/29 07:44:57;;;;;;;8.85;6.60;;;18.20;99.90;;;;;;5034092;28;20088;-83
2022/08/29 07:47:25;;;;;;;6.75;6.05;;;18.30;99.90;;;;;;5040583;28;20485;-83
2022/08/29 07:49:50;;;;;;;9.50;7.00;;;18.40;99.90;;;;;;5034155;28;20520;-84
2022/08/29 07:52:16;;;;;;;6.72;5.93;;;18.40;99.90;;;;;;5038168;28;20025;-83
2022/08/29 07:54:41;;;;;;;8.77;6.15;;;18.50;99.90;;;;;;5040469;28;20040;-83
2022/08/29 07:57:07;;;;;;;7.38;5.50;;;18.60;99.90;;;;;;5040331;28;20128;-83
2022/08/29 07:59:33;;;;;;;8.13;6.68;;;18.60;99.90;;;;;;5033297;28;20063;-83
2022/08/29 08:01:58;;;;;;;10.10;7.13;;;18.80;99.90;;;;;;5032986;28;20022;-84
2022/08/29 08:04:24;;;;;;;8.90;6.43;;;18.90;99.90;;;;;;5032728;28;20029;-83
2022/08/29 08:06:49;;;;;;;12.10;7.20;;;19.00;99.90;;;;;;5032826;28;20896;-84
2022/08/29 08:09:15;;;;;;;8.98;7.25;;;19.00;99.90;;;;;;5033054;28;20378;-84
2022/08/29 08:11:41;;;;;;;11.63;7.15;;;19.10;99.90;;;;;;5032804;28;20041;-83
2022/08/29 08:14:08;;;;;;;7.65;6.75;;;19.10;99.90;;;;;;5024919;28;20451;-83
2022/08/29 08:16:33;;;;;;;8.00;6.68;;;19.10;99.90;;;;;;5030378;28;20043;-84
2022/08/29 08:18:59;;;;;;;10.80;6.95;;;19.20;99.90;;;;;;5031841;28;20018;-84
2022/08/29 08:21:26;;;;;;;8.10;7.05;;;19.20;99.90;;;;;;5036999;28;20024;-84
2022/08/29 08:23:52;;;;;;;10.63;7.38;;;19.20;99.90;;;;;;5032129;28;20022;-83
2022/08/29 08:26:18;;;;;;;8.18;7.30;;;19.20;99.90;;;;;;5032172;28;20025;-83
2022/08/29 08:28:44;;;;;;;8.60;7.40;;;19.30;99.90;;;;;;5031361;28;20025;-83
2022/08/29 08:31:12;;;;;;;9.10;7.88;;;19.40;99.90;;;;;;5032112;28;20091;-84
2022/08/29 08:33:38;;;;;;;9.35;7.50;;;19.40;99.90;;;;;;5032322;28;20853;-84
2022/08/29 08:36:11;;;;;;;9.80;7.30;;;19.50;99.90;;;;;;5032804;28;20084;-83
2022/08/29 08:38:37;;;;;;;8.45;6.85;;;19.60;99.90;;;;;;5033696;28;20037;-83
2022/08/29 08:41:34;;;;;;;8.88;7.00;;;19.70;99.90;;;;;;5027059;28;20014;-83
2022/08/29 08:44:30;;;;;;;11.82;7.53;;;19.80;99.90;;;;;;5022974;28;20053;-83
2022/08/29 08:46:59;;;;;;;11.13;7.95;;;19.90;99.90;;;;;;5033682;28;20120;-84
2022/08/29 08:49:31;;;;;;;13.05;7.80;;;20.10;99.90;;;;;;5033770;28;20017;-84
2022/08/29 08:52:03;;;;;;;8.73;6.38;;;20.20;99.90;;;;;;5034157;28;20028;-83
2022/08/29 08:54:42;;;;;;;9.73;7.95;;;20.30;99.90;;;;;;5034434;28;20083;-83
2022/08/29 08:57:12;;;;;;;14.23;8.73;;;20.30;99.90;;;;;;5033396;28;20120;-83
2022/08/29 08:59:44;;;;;;;9.18;7.97;;;20.40;99.90;;;;;;5042467;28;20032;-84
2022/08/29 09:02:35;;;;;;;9.18;7.32;;;20.60;99.90;;;;;;5037559;28;20028;-84
2022/08/29 09:05:18;;;;;;;9.73;7.63;;;20.70;99.90;;;;;;5043944;28;20335;-83
2022/08/29 09:07:54;;;;;;;12.80;7.75;;;20.90;99.90;;;;;;5037460;28;20029;-84
2022/08/29 09:10:31;;;;;;;9.38;7.30;;;21.00;99.90;;;;;;5039363;28;20057;-83
2022/08/29 09:13:17;;;;;;;8.65;6.82;;;21.20;99.90;;;;;;5033853;28;20323;-84
2022/08/29 09:15:46;;;;;;;11.05;6.88;;;21.40;99.90;;;;;;5029223;28;20033;-83
2022/08/29 09:18:36;;;;;;;8.15;6.07;;;21.60;99.90;;;;;;5033241;28;20034;-84
2022/08/29 09:21:05;;;;;;;11.93;6.90;;;21.80;99.90;;;;;;5031103;28;20376;-84
2022/08/29 09:23:43;;;;;;;9.05;8.10;;;22.10;99.90;;;;;;5034154;28;20354;-81
2022/08/29 09:26:09;;;;;;;10.57;7.22;;;22.40;99.90;;;;;;5030295;28;20021;-84
2022/08/29 09:28:35;;;;;;;9.30;6.72;;;22.60;99.90;;;;;;5032759;28;20047;-84
2022/08/29 09:31:19;;;;;;;10.63;6.80;;;22.80;99.90;;;;;;5032621;28;20041;-84
2022/08/29 09:33:52;;;;;;;12.52;6.47;;;23.10;99.90;;;;;;5033821;28;20022;-85
2022/08/29 09:36:45;;;;;;;10.60;7.00;;;23.20;99.90;;;;;;5033481;28;20029;-85
2022/08/29 09:39:13;;;;;;;9.23;6.95;;;23.30;99.90;;;;;;5032859;28;20088;-85
2022/08/29 09:41:39;;;;;;;10.68;7.30;;;23.00;99.90;;;;;;5033155;28;20642;-84
2022/08/29 09:44:08;;;;;;;10.65;7.32;;;22.90;99.90;;;;;;5042000;28;20033;-84
2022/08/29 09:46:33;;;;;;;8.57;7.15;;;22.70;99.90;;;;;;5032533;28;20029;-84
2022/08/29 09:48:59;;;;;;;10.57;6.97;;;22.60;99.90;;;;;;5029436;28;20033;-79
2022/08/29 09:51:27;;;;;;;7.50;6.70;;;22.30;99.90;;;;;;5030267;28;20017;-86
2022/08/29 09:54:14;;;;;;;10.60;7.53;;;22.30;99.90;;;;;;5033274;28;20045;-85
2022/08/29 09:56:53;;;;;;;12.13;7.03;;;22.30;99.90;;;;;;5033080;28;20045;-86
2022/08/29 09:59:28;;;;;;;10.15;6.90;;;22.40;99.90;;;;;;5013777;28;20434;-85
2022/08/29 10:02:18;;;;;;;11.07;7.78;;;22.70;99.90;;;;;;5013737;28;20026;-86
2022/08/29 10:04:47;;;;;;;11.57;7.22;;;22.80;99.90;;;;;;5013677;28;20026;-86
2022/08/29 10:07:19;;;;;;;10.18;6.75;;;22.70;99.90;;;;;;5028851;28;20359;-85
2022/08/29 10:10:15;;;;;;;6.45;5.70;;;22.60;99.90;;;;;;5033400;28;20136;-85
2022/08/29 10:13:02;;;;;;;12.10;7.22;;;22.40;99.90;;;;;;5032136;28;20041;-85
2022/08/29 10:15:38;;;;;;;10.70;7.30;;;22.30;99.90;;;;;;5026159;28;20101;-85
2022/08/29 10:18:22;;;;;;;11.55;6.63;;;22.10;99.90;;;;;;5032953;28;20032;-85
2022/08/29 10:21:09;;;;;;;9.48;6.22;;;22.10;99.90;;;;;;5032995;28;20049;-85
2022/08/29 10:23:50;;;;;;;11.35;6.38;;;22.40;99.90;;;;;;5033440;28;20056;-85
2022/08/29 10:26:25;;;;;;;8.60;5.28;;;22.90;99.90;;;;;;5033028;28;20025;-85
2022/08/29 10:29:11;;;;;;;11.63;6.03;;;23.20;99.90;;;;;;5033369;28;20029;-85
2022/08/29 10:31:52;;;;;;;12.35;6.53;;;23.30;99.90;;;;;;5025384;28;20078;-85
2022/08/29 10:34:51;;;;;;;9.38;6.07;;;23.30;99.90;;;;;;5036784;28;20022;-85
2022/08/29 10:37:54;;;;;;;9.07;5.78;;;23.40;99.90;;;;;;5042519;28;20071;-85
2022/08/29 10:40:23;;;;;;;9.02;5.63;;;23.80;99.90;;;;;;5020922;28;20026;-85
2022/08/29 10:42:56;;;;;;;10.18;6.35;;;24.20;99.90;;;;;;5032935;28;20485;-85
2022/08/29 10:45:43;;;;;;;8.75;6.28;;;24.40;99.90;;;;;;5032789;28;20021;-86
2022/08/29 10:48:17;;;;;;;8.50;6.80;;;24.20;99.90;;;;;;5029656;28;20033;-85
2022/08/29 10:50:59;;;;;;;8.27;7.00;;;24.00;99.90;;;;;;5031495;28;20032;-85
2022/08/29 10:53:33;;;;;;;9.73;6.50;;;23.90;99.90;;;;;;5032709;28;20042;-85
2022/08/29 10:56:00;;;;;;;8.70;6.22;;;24.10;99.90;;;;;;5019313;28;20056;-85
2022/08/29 10:58:38;;;;;;;8.63;6.00;;;24.30;99.90;;;;;;5032793;28;20072;-85
2022/08/29 11:01:09;;;;;;;9.13;6.88;;;24.60;99.90;;;;;;5013379;28;20022;-85
2022/08/29 11:03:51;;;;;;;15.90;7.72;;;24.80;99.90;;;;;;5013210;28;20034;-85
2022/08/29 11:06:25;;;;;;;9.68;6.45;;;24.80;99.90;;;;;;5031246;28;20025;-86
2022/08/29 11:09:12;;;;;;;11.38;6.55;;;24.50;99.90;;;;;;5032518;28;20034;-85
2022/08/29 11:11:44;;;;;;;8.88;7.07;;;24.30;99.90;;;;;;5032531;28;20033;-85
2022/08/29 11:14:22;;;;;;;14.75;7.60;;;24.10;99.90;;;;;;5030088;28;20041;-85
2022/08/29 11:16:51;;;;;;;14.32;7.75;;;24.00;99.90;;;;;;5016804;28;20030;-85
2022/08/29 11:19:53;;;;;;;9.45;6.93;;;24.00;99.90;;;;;;5028140;28;20160;-84
2022/08/29 11:22:34;;;;;;;10.63;7.10;;;23.90;99.90;;;;;;5029497;28;20109;-85
2022/08/29 11:25:09;;;;;;;9.45;7.15;;;23.80;99.90;;;;;;5032589;28;20064;-85
2022/08/29 11:27:50;;;;;;;10.43;7.63;;;23.60;99.90;;;;;;5029610;28;20041;-85
2022/08/29 11:30:18;;;;;;;9.50;7.07;;;23.50;99.90;;;;;;5025003;28;20017;-85
2022/08/29 11:33:02;;;;;;;8.68;6.45;;;23.80;99.90;;;;;;5033597;28;20104;-85
2022/08/29 11:35:41;;;;;;;12.87;6.70;;;24.00;99.90;;;;;;5032374;28;20110;-84
2022/08/29 11:38:28;;;;;;;8.82;6.70;;;24.20;99.90;;;;;;5032175;28;20104;-85
2022/08/29 11:41:00;;;;;;;7.43;6.05;;;24.50;99.90;;;;;;5020582;28;20022;-85
2022/08/29 11:43:34;;;;;;;9.55;6.85;;;24.70;99.90;;;;;;5018192;28;20021;-85
2022/08/29 11:46:05;;;;;;;8.43;6.40;;;24.90;99.90;;;;;;5032697;28;20025;-85
2022/08/29 11:48:34;;;;;;;9.98;6.88;;;25.40;99.90;;;;;;5032284;28;20029;-85
2022/08/29 11:51:29;;;;;;;9.73;6.53;;;25.80;99.90;;;;;;5036670;28;20033;-78
2022/08/29 11:53:55;;;;;;;9.57;6.40;;;26.00;99.90;;;;;;5045352;28;20029;-76
2022/08/29 11:56:26;;;;;;;9.43;5.65;;;26.20;99.90;;;;;;5045866;28;20094;-76
2022/08/29 11:58:58;;;;;;;6.80;5.72;;;26.40;99.90;;;;;;5042607;28;20429;-76
2022/08/29 12:01:23;;;;;;;6.55;5.28;;;26.70;99.90;;;;;;5038104;28;20105;-76
2022/08/29 12:03:50;;;;;;;8.38;5.75;;;27.00;99.90;;;;;;5028958;28;20932;-77
2022/08/29 12:06:31;;;;;;;6.80;5.50;;;27.30;99.90;;;;;;5025211;28;20718;-76
2022/08/29 12:09:07;;;;;;;7.25;5.35;;;27.20;99.90;;;;;;5028220;28;20044;-78
2022/08/29 12:12:12;;;;;;;7.43;5.65;;;27.20;99.90;;;;;;5034625;28;20030;-82
2022/08/29 12:14:43;;;;;;;8.40;5.72;;;27.40;99.90;;;;;;4985417;28;20502;-81
2022/08/29 12:17:32;;;;;;;6.57;5.13;;;27.60;99.90;;;;;;4986098;28;20057;-81
2022/08/29 12:19:58;;;;;;;8.73;5.35;;;27.90;99.90;;;;;;5016185;28;20080;-82
2022/08/29 12:22:52;;;;;;;6.97;4.97;;;28.20;99.90;;;;;;5030555;28;20022;-82
2022/08/29 12:25:27;;;;;;;8.43;4.97;;;28.30;99.90;;;;;;5030741;28;20815;-82
2022/08/29 12:28:14;;;;;;;7.47;5.25;;;28.60;99.90;;;;;;5027105;28;20029;-81
2022/08/29 12:30:46;;;;;;;8.57;5.38;;;28.60;99.90;;;;;;5030625;28;20107;-82
2022/08/29 12:33:31;;;;;;;5.28;4.43;;;28.70;99.90;;;;;;5030760;28;20025;-81
2022/08/29 12:36:20;;;;;;;8.23;4.70;;;28.60;99.90;;;;;;5031089;28;20722;-82
2022/08/29 12:38:55;;;;;;;9.77;5.28;;;28.10;99.90;;;;;;5028554;28;20025;-81
2022/08/29 12:41:45;;;;;;;6.75;5.25;;;27.70;99.90;;;;;;5039196;28;20064;-82
2022/08/29 12:44:15;;;;;;;11.23;5.32;;;27.20;99.90;;;;;;5022485;28;20157;-82
2022/08/29 12:46:43;;;;;;;7.53;5.20;;;27.00;99.90;;;;;;5030180;28;20029;-82
2022/08/29 12:49:24;;;;;;;7.45;5.03;;;27.00;99.90;;;;;;5029660;28;20719;-81
2022/08/29 12:52:00;;;;;;;7.25;4.88;;;27.30;99.90;;;;;;5029443;28;20017;-82
2022/08/29 12:54:35;;;;;;;8.23;5.10;;;27.60;99.90;;;;;;5039024;28;20571;-82
2022/08/29 12:57:04;;;;;;;8.80;5.43;;;27.80;99.90;;;;;;5040711;28;20144;-82
2022/08/29 12:59:30;;;;;;;6.72;4.80;;;27.90;99.90;;;;;;5040286;28;20036;-82
2022/08/29 13:01:57;;;;;;;7.50;4.93;;;27.90;99.90;;;;;;5030142;28;20713;-82